Time;durP1;ratioP1;P1;durP2;ratioP2;P2;SDS_P1;SDS_P2;PMS_P1;PMS_P2;Temp;Humidity;BMP_temperature;BMP_pressure;BME280_temperature;BME280_humidity;BME280_pressure;Samples;Min_cycle;Max_cycle;Signal;HPM_P1;HPM_P2
2023/08/16 00:01:21;;;;;;;9.73;6.60;;;16.40;99.90;;;;;;5092559;28;20039;-74
2023/08/16 00:03:47;;;;;;;8.43;6.13;;;16.40;99.90;;;;;;5091695;28;20044;-74
2023/08/16 00:06:14;;;;;;;9.17;6.93;;;16.40;99.90;;;;;;5092632;28;20050;-74
2023/08/16 00:08:40;;;;;;;10.13;6.67;;;16.30;99.90;;;;;;5091714;28;20095;-74
2023/08/16 00:11:07;;;;;;;8.33;6.83;;;16.30;99.90;;;;;;5092513;28;20040;-74
2023/08/16 00:13:34;;;;;;;9.27;6.13;;;16.20;99.90;;;;;;5092627;28;20040;-74
2023/08/16 00:16:01;;;;;;;7.90;6.20;;;16.30;99.90;;;;;;5092490;28;20040;-74
2023/08/16 00:18:28;;;;;;;10.93;7.17;;;16.20;99.90;;;;;;5092364;28;20062;-74
2023/08/16 00:20:54;;;;;;;10.60;6.63;;;16.20;99.90;;;;;;5092538;28;20040;-74
2023/08/16 00:23:20;;;;;;;11.87;6.83;;;16.20;99.90;;;;;;5093395;28;20062;-74
2023/08/16 00:25:45;;;;;;;9.37;6.43;;;16.20;99.90;;;;;;5095183;28;20087;-74
2023/08/16 00:28:11;;;;;;;9.83;6.77;;;16.20;99.90;;;;;;5094834;28;20077;-74
2023/08/16 00:30:37;;;;;;;9.17;6.77;;;16.20;99.90;;;;;;5096142;28;20118;-74
2023/08/16 00:33:02;;;;;;;10.23;7.27;;;16.10;99.90;;;;;;5096082;28;20040;-74
2023/08/16 00:35:28;;;;;;;10.90;6.90;;;16.00;99.90;;;;;;5095609;28;20418;-74
2023/08/16 00:37:58;;;;;;;10.90;7.43;;;16.00;99.90;;;;;;5096146;28;20480;-74
2023/08/16 00:40:24;;;;;;;11.60;7.70;;;16.30;99.90;;;;;;5095570;28;20048;-74
2023/08/16 00:42:49;;;;;;;8.50;7.37;;;16.10;99.90;;;;;;5095081;28;20046;-74
2023/08/16 00:45:15;;;;;;;9.50;7.57;;;16.20;99.90;;;;;;5095458;28;20069;-74
2023/08/16 00:47:42;;;;;;;9.27;6.80;;;16.30;99.90;;;;;;5095920;28;20083;-74
2023/08/16 00:50:08;;;;;;;9.43;7.37;;;16.20;99.90;;;;;;5094300;28;20141;-75
2023/08/16 00:52:34;;;;;;;9.20;6.90;;;16.10;99.90;;;;;;5095876;28;20044;-74
2023/08/16 00:55:02;;;;;;;11.67;7.10;;;16.10;99.90;;;;;;5095502;28;20040;-75
2023/08/16 00:57:29;;;;;;;10.83;7.13;;;16.00;99.90;;;;;;5094311;28;20056;-74
2023/08/16 00:59:55;;;;;;;9.97;7.53;;;16.00;99.90;;;;;;5095489;28;20083;-74
2023/08/16 01:02:21;;;;;;;10.40;7.10;;;16.00;99.90;;;;;;5094040;28;20086;-74
2023/08/16 01:04:47;;;;;;;11.47;7.30;;;15.90;99.90;;;;;;5095533;28;20032;-74
2023/08/16 01:07:14;;;;;;;10.10;7.40;;;15.90;99.90;;;;;;5095015;28;20468;-74
2023/08/16 01:09:40;;;;;;;8.03;6.90;;;15.90;99.90;;;;;;5094329;28;20079;-74
2023/08/16 01:12:22;;;;;;;9.53;7.60;;;15.90;99.90;;;;;;5095286;28;20082;-74
2023/08/16 01:15:02;;;;;;;9.30;6.80;;;15.90;99.90;;;;;;5094368;28;20047;-75
2023/08/16 01:17:29;;;;;;;9.97;7.57;;;16.00;99.90;;;;;;5094082;28;20109;-74
2023/08/16 01:19:57;;;;;;;10.33;7.70;;;16.00;99.90;;;;;;5095439;28;20097;-74
2023/08/16 01:22:30;;;;;;;11.20;6.50;;;16.00;99.90;;;;;;5094861;28;20047;-76
2023/08/16 01:25:22;;;;;;;9.03;6.90;;;15.90;99.90;;;;;;5095168;28;20043;-75
2023/08/16 01:27:51;;;;;;;11.93;6.67;;;15.90;99.90;;;;;;5095037;28;20096;-75
2023/08/16 01:30:20;;;;;;;11.30;7.43;;;15.90;99.90;;;;;;5093719;28;20044;-75
2023/08/16 01:32:47;;;;;;;9.50;7.00;;;15.80;99.90;;;;;;5094867;28;20124;-75
2023/08/16 01:35:14;;;;;;;8.93;7.10;;;15.80;99.90;;;;;;5092716;28;20456;-75
2023/08/16 01:37:40;;;;;;;9.93;8.07;;;15.70;99.90;;;;;;5095019;28;20105;-74
2023/08/16 01:40:08;;;;;;;9.53;7.27;;;15.70;99.90;;;;;;5094740;28;20114;-74
2023/08/16 01:42:39;;;;;;;10.10;6.83;;;15.70;99.90;;;;;;5094105;28;20557;-75
2023/08/16 01:45:07;;;;;;;10.30;8.07;;;15.60;99.90;;;;;;5094866;28;20036;-75
2023/08/16 01:47:33;;;;;;;9.40;6.97;;;15.60;99.90;;;;;;5094358;28;20050;-75
2023/08/16 01:50:00;;;;;;;9.57;7.57;;;15.70;99.90;;;;;;5094548;28;20048;-75
2023/08/16 01:52:27;;;;;;;9.07;6.67;;;15.80;99.90;;;;;;5094262;28;20039;-75
2023/08/16 01:54:53;;;;;;;10.97;8.00;;;15.70;99.90;;;;;;5094496;28;20063;-74
2023/08/16 01:57:19;;;;;;;10.03;7.33;;;15.60;99.90;;;;;;5094086;28;20468;-75
2023/08/16 01:59:44;;;;;;;9.47;7.13;;;15.50;99.90;;;;;;5094685;28;20048;-75
2023/08/16 02:02:10;;;;;;;10.33;7.70;;;15.50;99.90;;;;;;5094491;28;20464;-75
2023/08/16 02:04:36;;;;;;;8.30;6.10;;;15.50;99.90;;;;;;5094351;28;20158;-75
2023/08/16 02:07:02;;;;;;;11.17;7.53;;;15.50;99.90;;;;;;5094251;28;20044;-75
2023/08/16 02:09:27;;;;;;;10.13;6.33;;;15.50;99.90;;;;;;5093882;28;20036;-75
2023/08/16 02:11:53;;;;;;;9.30;7.33;;;15.50;99.90;;;;;;5093960;28;20040;-75
2023/08/16 02:14:19;;;;;;;11.20;7.10;;;15.50;99.90;;;;;;5075883;28;20052;-74
2023/08/16 02:16:44;;;;;;;10.37;6.90;;;15.50;99.90;;;;;;5092645;28;20044;-75
2023/08/16 02:19:10;;;;;;;9.50;6.37;;;15.50;99.90;;;;;;5093905;28;20040;-75
2023/08/16 02:21:36;;;;;;;9.27;6.40;;;15.50;99.90;;;;;;5093646;28;20040;-75
2023/08/16 02:24:03;;;;;;;7.73;6.67;;;15.60;99.90;;;;;;5093862;28;20497;-75
2023/08/16 02:26:29;;;;;;;10.37;6.30;;;15.50;99.90;;;;;;5092293;28;20042;-75
2023/08/16 02:28:54;;;;;;;8.63;6.43;;;15.50;99.90;;;;;;5092587;28;20130;-75
2023/08/16 02:31:20;;;;;;;8.33;6.57;;;15.50;99.90;;;;;;5075421;28;20040;-75
2023/08/16 02:33:46;;;;;;;8.93;6.87;;;15.50;99.90;;;;;;5093547;28;20088;-75
2023/08/16 02:36:11;;;;;;;9.23;6.97;;;15.50;99.90;;;;;;5092093;28;20080;-75
2023/08/16 02:38:37;;;;;;;9.47;7.13;;;15.50;99.90;;;;;;5093268;28;20055;-75
2023/08/16 02:41:03;;;;;;;9.17;6.80;;;15.50;99.90;;;;;;5093505;28;20040;-75
2023/08/16 02:43:28;;;;;;;9.87;6.80;;;15.50;99.90;;;;;;5093160;28;20039;-75
2023/08/16 02:45:54;;;;;;;9.50;6.67;;;15.40;99.90;;;;;;5092986;28;20495;-75
2023/08/16 02:48:20;;;;;;;10.83;7.10;;;15.40;99.90;;;;;;5093494;28;20101;-75
2023/08/16 02:50:48;;;;;;;9.67;7.00;;;15.30;99.90;;;;;;5093109;28;20039;-75
2023/08/16 02:53:13;;;;;;;13.40;6.37;;;15.30;99.90;;;;;;5093482;28;20084;-75
2023/08/16 02:55:39;;;;;;;8.30;6.60;;;15.20;99.90;;;;;;5093028;28;20075;-75
2023/08/16 02:58:05;;;;;;;8.07;6.57;;;15.30;99.90;;;;;;5093433;28;20490;-75
2023/08/16 03:00:31;;;;;;;9.83;6.97;;;15.30;99.90;;;;;;5092126;28;20127;-75
2023/08/16 03:02:57;;;;;;;9.03;6.87;;;15.40;99.90;;;;;;5093352;28;20046;-75
2023/08/16 03:05:23;;;;;;;8.40;6.47;;;15.30;99.90;;;;;;5093336;28;20062;-75
2023/08/16 03:07:48;;;;;;;7.90;6.83;;;15.30;99.90;;;;;;5093146;28;20044;-75
2023/08/16 03:10:33;;;;;;;8.57;6.60;;;15.30;99.90;;;;;;5093263;28;20044;-75
2023/08/16 03:12:59;;;;;;;9.07;6.60;;;15.30;99.90;;;;;;5092619;28;20048;-75
2023/08/16 03:15:25;;;;;;;8.43;6.77;;;15.30;99.90;;;;;;5092897;28;20088;-75
2023/08/16 03:17:51;;;;;;;9.07;6.47;;;15.20;99.90;;;;;;5092327;28;20048;-75
2023/08/16 03:20:17;;;;;;;9.97;6.90;;;15.20;99.90;;;;;;5093329;28;20436;-75
2023/08/16 03:22:42;;;;;;;10.43;6.47;;;15.10;99.90;;;;;;5091895;28;20525;-75
2023/08/16 03:25:08;;;;;;;8.50;6.20;;;15.10;99.90;;;;;;5093255;28;20046;-75
2023/08/16 03:27:34;;;;;;;11.07;6.40;;;15.10;99.90;;;;;;5091878;28;20470;-74
2023/08/16 03:30:00;;;;;;;8.97;5.77;;;15.10;99.90;;;;;;5093196;28;20044;-75
2023/08/16 03:32:26;;;;;;;10.10;6.47;;;15.10;99.90;;;;;;5093136;28;20043;-75
2023/08/16 03:34:51;;;;;;;9.33;5.77;;;15.10;99.90;;;;;;5092940;28;20129;-75
2023/08/16 03:37:17;;;;;;;7.63;6.17;;;15.00;99.90;;;;;;5092597;28;20055;-75
2023/08/16 03:39:43;;;;;;;8.93;6.43;;;15.00;99.90;;;;;;5091250;28;20039;-75
2023/08/16 03:42:08;;;;;;;10.67;7.37;;;15.00;99.90;;;;;;5092125;28;20043;-75
2023/08/16 03:44:34;;;;;;;11.83;7.63;;;15.00;99.90;;;;;;5091359;28;20500;-75
2023/08/16 03:47:00;;;;;;;9.30;6.70;;;14.90;99.90;;;;;;5092871;28;20040;-75
2023/08/16 03:49:26;;;;;;;9.60;7.07;;;15.00;99.90;;;;;;5093074;28;20048;-75
2023/08/16 03:51:51;;;;;;;10.07;6.40;;;15.00;99.90;;;;;;5092666;28;20040;-75
2023/08/16 03:54:17;;;;;;;8.03;6.30;;;15.00;99.90;;;;;;5093057;28;20503;-75
2023/08/16 03:56:43;;;;;;;9.93;6.77;;;14.90;99.90;;;;;;5092417;28;20036;-75
2023/08/16 03:59:08;;;;;;;7.60;6.63;;;14.90;99.90;;;;;;5095643;28;20043;-75
2023/08/16 04:01:34;;;;;;;8.97;6.20;;;14.90;99.90;;;;;;5096247;28;20044;-75
2023/08/16 04:04:00;;;;;;;7.87;5.70;;;14.80;99.90;;;;;;5096578;28;20062;-75
2023/08/16 04:06:26;;;;;;;8.97;6.87;;;14.80;99.90;;;;;;5096591;28;20468;-75
2023/08/16 04:08:51;;;;;;;9.57;6.40;;;14.80;99.90;;;;;;5096345;28;20093;-75
2023/08/16 04:11:17;;;;;;;9.80;6.43;;;14.80;99.90;;;;;;5095836;28;20458;-75
2023/08/16 04:13:43;;;;;;;9.07;6.07;;;14.80;99.90;;;;;;5096150;28;20043;-75
2023/08/16 04:16:09;;;;;;;7.57;5.63;;;14.80;99.90;;;;;;5096518;28;20414;-75
2023/08/16 04:18:35;;;;;;;9.33;5.47;;;14.80;99.90;;;;;;5078424;28;20048;-75
2023/08/16 04:21:01;;;;;;;7.70;5.07;;;14.70;99.90;;;;;;5096279;28;20048;-75
2023/08/16 04:23:26;;;;;;;8.20;5.27;;;14.70;99.90;;;;;;5096263;28;20278;-75
2023/08/16 04:25:52;;;;;;;9.97;5.33;;;14.70;99.90;;;;;;5095895;28;20073;-75
2023/08/16 04:28:18;;;;;;;8.30;5.60;;;14.70;99.90;;;;;;5096554;28;20047;-75
2023/08/16 04:30:43;;;;;;;11.47;5.70;;;14.70;99.90;;;;;;5095842;28;20036;-75
2023/08/16 04:33:09;;;;;;;10.00;5.90;;;14.70;99.90;;;;;;5096071;28;20519;-75
2023/08/16 04:35:35;;;;;;;10.97;6.70;;;14.70;99.90;;;;;;5095989;28;20089;-75
2023/08/16 04:38:00;;;;;;;11.57;6.83;;;14.70;99.90;;;;;;5094481;28;20476;-75
2023/08/16 04:40:26;;;;;;;10.97;7.17;;;14.80;99.90;;;;;;5095883;28;20083;-75
2023/08/16 04:42:52;;;;;;;11.00;7.53;;;14.80;99.90;;;;;;5095590;28;20078;-75
2023/08/16 04:45:18;;;;;;;8.77;6.73;;;14.80;99.90;;;;;;5094662;28;20039;-75
2023/08/16 04:47:44;;;;;;;11.90;7.27;;;14.80;99.90;;;;;;5094709;28;20040;-75
2023/08/16 04:50:10;;;;;;;9.83;7.30;;;14.80;99.90;;;;;;5095789;28;20376;-75
2023/08/16 04:52:37;;;;;;;11.30;8.23;;;14.80;99.90;;;;;;5095753;28;20125;-75
2023/08/16 04:55:06;;;;;;;9.23;7.20;;;14.80;99.90;;;;;;5094132;28;20050;-75
2023/08/16 04:57:32;;;;;;;12.20;8.33;;;14.80;99.90;;;;;;5095714;28;20036;-75
2023/08/16 04:59:58;;;;;;;11.03;8.23;;;14.80;99.90;;;;;;5095269;28;20110;-75
2023/08/16 05:02:24;;;;;;;14.67;7.93;;;14.80;99.90;;;;;;5095642;28;20047;-76
2023/08/16 05:04:50;;;;;;;9.60;6.90;;;14.90;99.90;;;;;;5077428;28;20039;-75
2023/08/16 05:07:15;;;;;;;10.10;7.33;;;14.90;99.90;;;;;;5095783;28;20361;-76
2023/08/16 05:09:41;;;;;;;8.70;6.57;;;14.90;99.90;;;;;;5095222;28;20054;-75
2023/08/16 05:12:07;;;;;;;9.00;6.97;;;15.00;99.90;;;;;;5095386;28;20082;-75
2023/08/16 05:14:33;;;;;;;10.00;6.77;;;15.00;99.90;;;;;;5095231;28;20479;-76
2023/08/16 05:16:58;;;;;;;8.73;6.50;;;15.00;99.90;;;;;;5094962;28;20047;-75
2023/08/16 05:19:24;;;;;;;8.47;5.97;;;15.10;99.90;;;;;;5095388;28;20044;-75
2023/08/16 05:21:50;;;;;;;11.97;6.20;;;15.10;99.90;;;;;;5094960;28;20040;-75
2023/08/16 05:24:15;;;;;;;11.37;6.83;;;15.20;99.90;;;;;;5095106;28;20040;-75
2023/08/16 05:26:41;;;;;;;11.57;7.50;;;15.30;99.90;;;;;;5094751;28;20154;-75
2023/08/16 05:29:07;;;;;;;11.30;7.17;;;15.30;99.90;;;;;;5094729;28;20079;-75
2023/08/16 05:31:33;;;;;;;9.23;6.80;;;15.30;99.90;;;;;;5094900;28;20112;-75
2023/08/16 05:33:58;;;;;;;7.97;6.53;;;15.40;99.90;;;;;;5094393;28;20044;-75
2023/08/16 05:36:28;;;;;;;8.60;6.80;;;15.50;99.90;;;;;;5094452;28;20361;-75
2023/08/16 05:38:54;;;;;;;11.10;7.10;;;15.50;99.90;;;;;;5094789;28;20036;-75
2023/08/16 05:41:20;;;;;;;13.50;6.70;;;15.60;99.90;;;;;;5094799;28;20069;-75
2023/08/16 05:43:45;;;;;;;11.60;7.40;;;15.60;99.90;;;;;;5093515;28;20044;-75
2023/08/16 05:46:11;;;;;;;10.37;6.63;;;15.70;99.90;;;;;;5093161;28;20499;-75
2023/08/16 05:48:37;;;;;;;11.53;6.73;;;15.90;99.90;;;;;;5094776;28;20040;-75
2023/08/16 05:51:02;;;;;;;11.57;6.40;;;16.00;99.90;;;;;;5094269;28;20104;-75
2023/08/16 05:53:28;;;;;;;10.23;6.20;;;16.10;99.90;;;;;;5093346;28;20048;-75
2023/08/16 05:55:54;;;;;;;10.27;6.57;;;16.20;99.90;;;;;;5094241;28;20043;-75
2023/08/16 05:58:20;;;;;;;8.50;6.27;;;16.70;99.90;;;;;;5094460;28;20044;-75
2023/08/16 06:00:47;;;;;;;8.40;6.23;;;17.40;99.90;;;;;;5093443;28;20043;-76
2023/08/16 06:03:14;;;;;;;7.07;5.63;;;18.50;99.90;;;;;;5093840;28;20483;-76
2023/08/16 06:05:40;;;;;;;9.23;5.63;;;19.50;99.90;;;;;;5094479;28;20036;-75
2023/08/16 06:08:08;;;;;;;7.73;5.50;;;20.40;99.90;;;;;;5093944;28;20040;-75
2023/08/16 06:10:34;;;;;;;7.27;5.63;;;20.90;99.90;;;;;;5094167;28;20052;-75
2023/08/16 06:12:59;;;;;;;6.83;4.93;;;21.50;99.90;;;;;;5093859;28;20043;-75
2023/08/16 06:15:26;;;;;;;8.27;5.73;;;21.90;99.90;;;;;;5094029;28;20058;-75
2023/08/16 06:17:51;;;;;;;6.43;4.63;;;22.10;99.90;;;;;;5094244;28;20048;-75
2023/08/16 06:20:17;;;;;;;7.37;4.87;;;22.90;99.90;;;;;;5093643;28;20380;-75
2023/08/16 06:22:43;;;;;;;6.80;4.17;;;23.20;99.90;;;;;;5093666;28;20050;-75
2023/08/16 06:25:09;;;;;;;5.40;4.20;;;24.10;99.90;;;;;;5093225;28;20472;-75
2023/08/16 06:27:35;;;;;;;7.30;4.00;;;25.10;99.90;;;;;;5093827;28;20140;-76
2023/08/16 06:30:01;;;;;;;7.50;4.17;;;25.40;99.90;;;;;;5093491;28;20081;-76
2023/08/16 06:32:27;;;;;;;6.57;3.30;;;25.50;99.90;;;;;;5093682;28;20480;-76
2023/08/16 06:34:52;;;;;;;6.83;3.47;;;26.10;99.90;;;;;;5093631;28;20069;-75
2023/08/16 06:37:18;;;;;;;5.60;3.87;;;26.20;99.90;;;;;;5093346;28;20056;-75
2023/08/16 06:39:44;;;;;;;8.60;3.87;;;26.50;99.90;;;;;;5093621;28;20056;-76
2023/08/16 06:42:09;;;;;;;7.33;3.07;;;26.80;99.90;;;;;;5093422;28;20101;-76
2023/08/16 06:44:36;;;;;;;6.37;3.30;;;27.20;99.90;;;;;;5093552;28;20463;-76
2023/08/16 06:47:02;;;;;;;6.40;2.77;;;27.00;99.90;;;;;;5092959;28;20487;-76
2023/08/16 06:49:27;;;;;;;7.90;3.13;;;26.70;99.90;;;;;;5093746;28;20039;-76
2023/08/16 06:51:53;;;;;;;10.00;3.53;;;27.10;99.90;;;;;;5092320;28;20040;-76
2023/08/16 06:54:19;;;;;;;5.97;3.00;;;27.70;99.90;;;;;;5093303;28;20100;-76
2023/08/16 06:56:44;;;;;;;6.30;3.13;;;28.40;98.60;;;;;;5093531;28;20363;-76
2023/08/16 06:59:10;;;;;;;7.73;2.67;;;29.30;95.60;;;;;;5092881;28;20130;-76
2023/08/16 07:01:36;;;;;;;6.77;2.60;;;29.80;90.10;;;;;;5092218;28;20143;-76
2023/08/16 07:04:02;;;;;;;6.15;2.65;;;30.30;75.60;;;;;;5092995;28;20044;-76
2023/08/16 07:06:31;;;;;;;8.65;3.20;;;30.80;68.80;;;;;;5093301;28;20043;-76
2023/08/16 07:08:58;;;;;;;6.18;2.50;;;31.40;64.40;;;;;;5093356;28;20079;-76
2023/08/16 07:11:24;;;;;;;4.85;2.35;;;31.70;60.10;;;;;;5093026;28;20474;-76
2023/08/16 07:13:51;;;;;;;6.38;2.50;;;31.90;57.80;;;;;;5092451;28;20051;-76
2023/08/16 07:16:17;;;;;;;5.13;2.28;;;31.70;57.00;;;;;;5092922;28;20135;-76
2023/08/16 07:18:44;;;;;;;5.43;2.47;;;31.90;55.90;;;;;;5092432;28;20040;-76
2023/08/16 07:21:10;;;;;;;6.40;2.55;;;31.80;55.60;;;;;;5092792;28;20040;-76
2023/08/16 07:23:36;;;;;;;6.35;2.33;;;32.00;55.30;;;;;;5091940;28;20043;-76
2023/08/16 07:26:02;;;;;;;6.57;2.40;;;32.00;54.80;;;;;;5093297;28;20047;-76
2023/08/16 07:28:28;;;;;;;4.90;2.47;;;32.30;54.20;;;;;;5092076;28;20082;-76
2023/08/16 07:30:55;;;;;;;4.32;1.95;;;32.30;53.10;;;;;;5091804;28;20427;-76
2023/08/16 07:33:22;;;;;;;4.20;1.80;;;32.40;52.40;;;;;;5093263;28;20051;-77
2023/08/16 07:35:48;;;;;;;4.60;2.10;;;32.50;51.90;;;;;;5096468;28;20089;-75
2023/08/16 07:38:14;;;;;;;8.63;2.45;;;32.80;51.30;;;;;;5078663;28;20075;-76
2023/08/16 07:40:45;;;;;;;3.88;1.80;;;32.90;50.70;;;;;;5096306;28;20498;-76
2023/08/16 07:43:11;;;;;;;5.10;1.85;;;32.90;50.40;;;;;;5078914;28;20384;-77
2023/08/16 07:45:36;;;;;;;3.50;2.03;;;33.10;49.80;;;;;;5079262;28;20048;-74
2023/08/16 07:48:03;;;;;;;4.00;2.03;;;33.00;49.40;;;;;;5097010;28;20047;-77
2023/08/16 07:50:29;;;;;;;4.50;1.95;;;33.10;49.50;;;;;;5096519;28;20086;-76
2023/08/16 07:52:54;;;;;;;7.40;2.50;;;33.30;49.00;;;;;;5096976;28;20076;-76
2023/08/16 07:55:23;;;;;;;6.57;2.28;;;33.20;48.50;;;;;;5096173;28;20073;-77
2023/08/16 07:57:49;;;;;;;3.97;1.92;;;32.60;48.60;;;;;;5096758;28;20044;-77
2023/08/16 08:00:15;;;;;;;4.13;2.28;;;32.10;49.40;;;;;;5095244;28;20047;-77
2023/08/16 08:02:41;;;;;;;6.00;2.47;;;32.00;49.50;;;;;;5096643;28;20048;-77
2023/08/16 08:05:07;;;;;;;3.72;1.98;;;32.00;49.80;;;;;;5096632;28;20043;-77
2023/08/16 08:07:33;;;;;;;4.65;2.25;;;31.70;49.50;;;;;;5096279;28;20043;-77
2023/08/16 08:09:58;;;;;;;4.47;1.80;;;31.40;50.20;;;;;;5096502;28;20047;-78
2023/08/16 08:12:24;;;;;;;5.00;2.10;;;30.70;51.20;;;;;;5096148;28;20472;-77
2023/08/16 08:14:50;;;;;;;5.68;2.65;;;29.90;51.80;;;;;;5096672;28;20046;-77
2023/08/16 08:17:16;;;;;;;6.70;2.30;;;28.70;53.80;;;;;;5096098;28;20126;-76
2023/08/16 08:19:42;;;;;;;4.57;2.20;;;27.80;56.10;;;;;;5096300;28;20044;-76
2023/08/16 08:22:10;;;;;;;6.30;2.55;;;26.70;59.50;;;;;;5096465;28;20055;-76
2023/08/16 08:24:35;;;;;;;4.40;1.90;;;26.40;69.80;;;;;;5095101;28;20070;-76
2023/08/16 08:27:01;;;;;;;5.80;2.40;;;25.90;73.40;;;;;;5096310;28;20044;-75
2023/08/16 08:29:27;;;;;;;4.90;1.83;;;25.70;77.70;;;;;;5095937;28;20128;-75
2023/08/16 08:31:53;;;;;;;6.93;2.90;;;25.30;84.00;;;;;;5095977;28;20080;-72
2023/08/16 08:34:19;;;;;;;5.80;2.08;;;25.30;86.40;;;;;;5095722;28;20036;-72
2023/08/16 08:36:51;;;;;;;7.32;2.22;;;25.00;88.00;;;;;;5093212;28;20078;-73
2023/08/16 08:39:19;;;;;;;7.15;2.63;;;25.00;90.90;;;;;;5094488;28;20048;-71
2023/08/16 08:41:48;;;;;;;5.00;2.03;;;24.80;92.60;;;;;;5094747;28;20047;-75
2023/08/16 08:44:16;;;;;;;4.88;1.90;;;24.90;93.10;;;;;;5093870;28;20051;-74
2023/08/16 08:46:44;;;;;;;5.28;1.75;;;25.10;93.80;;;;;;5094237;28;20044;-75
2023/08/16 08:49:10;;;;;;;6.00;2.03;;;25.20;93.00;;;;;;5094174;28;20075;-74
2023/08/16 08:51:38;;;;;;;4.97;1.98;;;25.40;92.60;;;;;;5094011;28;20051;-75
2023/08/16 08:54:05;;;;;;;4.88;2.10;;;25.40;92.70;;;;;;5094125;28;20123;-74
2023/08/16 08:56:31;;;;;;;4.45;2.10;;;25.00;93.50;;;;;;5092510;28;20548;-75
2023/08/16 08:58:59;;;;;;;4.75;2.00;;;24.80;94.70;;;;;;5094437;28;20123;-73
2023/08/16 09:01:25;;;;;;;5.38;2.10;;;24.40;95.50;;;;;;5093948;28;20554;-74
2023/08/16 09:03:52;;;;;;;6.55;2.10;;;24.10;96.50;;;;;;5094389;28;20086;-74
2023/08/16 09:06:18;;;;;;;9.93;2.60;;;23.80;98.00;;;;;;5094594;28;20043;-74
2023/08/16 09:08:45;;;;;;;4.53;2.10;;;23.80;98.20;;;;;;5094462;28;20040;-74
2023/08/16 09:11:13;;;;;;;4.67;2.00;;;23.80;99.60;;;;;;5093311;28;20131;-74
2023/08/16 09:13:39;;;;;;;6.63;2.20;;;23.80;99.30;;;;;;5094122;28;20040;-73
2023/08/16 09:16:05;;;;;;;4.17;1.97;;;23.90;99.50;;;;;;5093232;28;20129;-75
2023/08/16 09:18:31;;;;;;;5.33;1.97;;;24.10;99.00;;;;;;5092809;28;20148;-74
2023/08/16 09:21:00;;;;;;;2.90;1.57;;;24.20;98.80;;;;;;5094396;28;20126;-75
2023/08/16 09:23:26;;;;;;;5.07;1.87;;;24.00;97.10;;;;;;5093784;28;20090;-77
2023/08/16 09:25:51;;;;;;;4.67;1.67;;;23.70;97.50;;;;;;5076195;28;20558;-78
2023/08/16 09:28:18;;;;;;;2.60;1.47;;;23.50;98.00;;;;;;5094064;28;20044;-78
2023/08/16 09:30:44;;;;;;;6.03;2.50;;;23.50;99.00;;;;;;5093692;28;20040;-77
2023/08/16 09:33:14;;;;;;;4.20;1.73;;;23.40;99.70;;;;;;5094038;28;20050;-75
2023/08/16 09:38:23;;;;;;;5.60;2.13;;;23.30;99.90;;;;;;5150437;27;1308828;-73
2023/08/16 09:40:50;;;;;;;6.00;1.97;;;23.10;99.90;;;;;;5172787;27;20375;-72
2023/08/16 09:43:20;;;;;;;4.87;1.83;;;23.00;99.90;;;;;;5172990;27;20110;-76
2023/08/16 09:45:54;;;;;;;5.30;1.60;;;23.10;99.90;;;;;;5154084;27;20485;-73
2023/08/16 09:48:24;;;;;;;6.47;2.13;;;23.30;99.90;;;;;;5172963;27;20074;-74
2023/08/16 09:50:50;;;;;;;5.20;1.90;;;23.30;99.90;;;;;;5154424;27;20386;-73
2023/08/16 09:53:16;;;;;;;8.07;2.40;;;23.30;99.90;;;;;;5172631;27;20050;-74
2023/08/16 09:55:44;;;;;;;4.67;1.83;;;23.30;99.90;;;;;;5172157;27;20046;-74
2023/08/16 09:58:12;;;;;;;4.83;1.77;;;23.30;99.90;;;;;;5172368;27;20039;-74
2023/08/16 10:00:40;;;;;;;7.50;2.07;;;23.40;99.90;;;;;;5172143;27;20102;-74
2023/08/16 10:03:08;;;;;;;7.33;2.03;;;23.30;99.90;;;;;;5172467;27;20062;-75
2023/08/16 10:05:34;;;;;;;5.67;2.07;;;23.30;99.90;;;;;;5172286;27;20046;-79
2023/08/16 10:08:04;;;;;;;3.97;2.10;;;23.30;99.90;;;;;;5172718;27;20039;-74
2023/08/16 10:10:34;;;;;;;6.60;1.97;;;23.40;99.90;;;;;;5153630;27;20042;-79
2023/08/16 10:13:03;;;;;;;3.73;1.80;;;23.40;99.90;;;;;;5154257;27;20106;-80
2023/08/16 10:15:32;;;;;;;5.23;2.17;;;23.40;99.90;;;;;;5172051;27;20075;-77
2023/08/16 10:18:00;;;;;;;5.73;1.83;;;23.30;99.90;;;;;;5172117;27;20121;-79
2023/08/16 10:20:32;;;;;;;5.13;1.87;;;23.20;99.90;;;;;;5172132;27;20448;-79
2023/08/16 10:23:00;;;;;;;3.93;1.60;;;23.20;99.90;;;;;;5172446;27;20399;-79
2023/08/16 10:25:32;;;;;;;7.23;2.27;;;23.00;99.70;;;;;;5153865;27;20133;-82
2023/08/16 10:28:02;;;;;;;5.87;2.23;;;23.00;99.90;;;;;;5172281;27;20123;-79
2023/08/16 10:30:29;;;;;;;4.57;1.73;;;23.00;99.90;;;;;;5136461;27;20074;-80
2023/08/16 10:33:09;;;;;;;7.63;2.40;;;23.00;99.90;;;;;;5172109;27;20046;-79
2023/08/16 10:35:35;;;;;;;4.40;1.63;;;23.10;99.90;;;;;;5172046;27;20046;-80
2023/08/16 10:38:01;;;;;;;6.70;2.10;;;23.20;99.90;;;;;;5171848;27;20504;-81
2023/08/16 10:40:27;;;;;;;4.70;1.73;;;23.10;99.90;;;;;;5153309;27;20051;-70
2023/08/16 10:42:59;;;;;;;4.63;1.63;;;23.20;99.90;;;;;;5170574;27;20107;-71
2023/08/16 10:45:30;;;;;;;4.50;1.57;;;23.10;99.50;;;;;;5171207;27;20042;-70
2023/08/16 10:47:56;;;;;;;5.50;1.60;;;23.00;99.80;;;;;;5149020;27;20051;-71
2023/08/16 10:50:34;;;;;;;5.07;1.50;;;23.00;99.80;;;;;;5157208;27;20118;-75
2023/08/16 10:53:00;;;;;;;4.80;1.60;;;23.10;99.90;;;;;;5154781;27;20107;-74
2023/08/16 10:55:26;;;;;;;4.87;1.80;;;23.30;99.90;;;;;;5157172;27;20494;-75
2023/08/16 10:57:53;;;;;;;4.67;2.07;;;23.30;99.20;;;;;;5138721;27;20065;-74
2023/08/16 11:00:19;;;;;;;4.30;1.50;;;23.30;98.80;;;;;;5157432;27;20081;-74
2023/08/16 11:02:48;;;;;;;7.13;1.77;;;23.40;98.90;;;;;;5157073;27;20085;-74
2023/08/16 11:05:20;;;;;;;4.37;2.30;;;23.30;99.00;;;;;;5139180;27;20103;-74
2023/08/16 11:07:46;;;;;;;4.97;1.83;;;23.20;98.80;;;;;;5156956;27;20042;-72
2023/08/16 11:10:13;;;;;;;5.50;1.60;;;23.10;99.50;;;;;;5157269;27;20436;-73
2023/08/16 11:12:39;;;;;;;3.33;1.60;;;23.00;99.90;;;;;;5138644;27;20133;-71
2023/08/16 11:15:06;;;;;;;4.10;1.70;;;23.20;99.90;;;;;;5121301;27;20513;-78
2023/08/16 11:17:32;;;;;;;4.10;1.50;;;23.40;99.90;;;;;;5157413;27;20067;-76
2023/08/16 11:20:01;;;;;;;3.80;1.80;;;23.60;99.90;;;;;;5138584;27;20126;-74
2023/08/16 11:22:26;;;;;;;3.37;1.40;;;23.70;99.30;;;;;;5156988;27;20060;-74
2023/08/16 11:24:52;;;;;;;4.67;1.50;;;23.60;98.10;;;;;;5156675;27;20168;-74
2023/08/16 11:27:24;;;;;;;3.23;1.47;;;23.60;98.00;;;;;;5156968;27;20074;-74
2023/08/16 11:29:51;;;;;;;3.47;1.50;;;23.60;98.20;;;;;;5156582;27;20039;-74
2023/08/16 11:32:37;;;;;;;3.27;1.30;;;23.50;98.70;;;;;;5157081;27;20088;-74
2023/08/16 11:35:06;;;;;;;4.93;1.70;;;23.70;98.80;;;;;;5156599;27;20042;-74
2023/08/16 11:37:33;;;;;;;4.10;1.83;;;23.70;98.20;;;;;;5155954;27;20739;-74
2023/08/16 11:40:00;;;;;;;4.70;1.60;;;23.70;97.70;;;;;;5138257;27;20130;-74
2023/08/16 11:42:27;;;;;;;4.00;1.50;;;23.60;97.00;;;;;;5138194;27;20050;-74
2023/08/16 11:44:53;;;;;;;2.97;1.40;;;23.50;97.00;;;;;;5156300;27;20054;-74
2023/08/16 11:47:19;;;;;;;3.47;1.37;;;23.40;96.70;;;;;;5120996;27;20043;-74
2023/08/16 11:49:48;;;;;;;4.17;1.60;;;23.30;97.70;;;;;;5120904;27;20095;-74
2023/08/16 11:52:19;;;;;;;4.63;1.93;;;23.20;98.10;;;;;;5138211;27;20107;-74
2023/08/16 11:54:44;;;;;;;3.83;1.60;;;23.20;98.50;;;;;;5137949;27;20092;-74
2023/08/16 11:57:18;;;;;;;5.03;1.53;;;23.30;98.40;;;;;;5156278;27;20042;-74
2023/08/16 11:59:55;;;;;;;5.23;2.07;;;23.40;98.00;;;;;;5155220;27;20042;-74
2023/08/16 12:02:22;;;;;;;5.07;1.70;;;23.40;98.50;;;;;;5155971;27;20483;-74
2023/08/16 12:04:48;;;;;;;2.47;1.30;;;23.30;98.50;;;;;;5137384;27;20051;-72
2023/08/16 12:07:13;;;;;;;3.63;1.70;;;23.40;98.00;;;;;;5156113;27;20071;-71
2023/08/16 12:09:40;;;;;;;4.47;1.50;;;23.40;97.70;;;;;;5156134;27;20104;-70
2023/08/16 12:12:12;;;;;;;5.57;1.50;;;23.50;97.90;;;;;;5155736;27;20042;-71
2023/08/16 12:14:38;;;;;;;5.63;1.90;;;23.50;98.00;;;;;;5156034;27;20096;-70
2023/08/16 12:17:03;;;;;;;5.57;1.33;;;23.40;98.00;;;;;;5155520;27;20079;-77
2023/08/16 12:19:29;;;;;;;3.30;1.60;;;23.20;98.50;;;;;;5155883;27;20045;-74
2023/08/16 12:21:55;;;;;;;5.90;1.70;;;23.20;98.70;;;;;;5137216;27;20561;-74
2023/08/16 12:24:20;;;;;;;2.67;1.50;;;23.20;98.50;;;;;;5155920;27;20050;-73
2023/08/16 12:26:46;;;;;;;4.97;1.50;;;23.10;98.40;;;;;;5137373;27;20129;-74
2023/08/16 12:29:12;;;;;;;8.50;2.10;;;23.20;98.50;;;;;;5155717;27;20051;-74
2023/08/16 12:31:38;;;;;;;4.63;1.50;;;23.30;98.40;;;;;;5137393;27;20046;-74
2023/08/16 12:34:07;;;;;;;5.47;1.47;;;23.20;98.00;;;;;;5137025;27;20042;-74
2023/08/16 12:36:33;;;;;;;6.13;1.63;;;23.20;97.30;;;;;;5155436;27;20540;-74
2023/08/16 12:38:59;;;;;;;3.40;1.30;;;23.10;97.50;;;;;;5154823;27;20054;-74
2023/08/16 12:41:25;;;;;;;4.20;1.20;;;23.00;97.50;;;;;;5137116;27;20055;-74
2023/08/16 12:43:53;;;;;;;2.93;1.27;;;23.00;97.60;;;;;;5155147;27;20053;-74
2023/08/16 12:46:19;;;;;;;4.43;1.23;;;23.00;97.20;;;;;;5155545;27;20394;-74